Nichioh Maru — JD3267 — position and weather

sailwx.info

Track history (hours):
 
Tides and Currents Weather Stations Pressure Air Temp Water Temp Dewpoint Dewpoint Depression Visibility Wind Speed Wind Dir Waves Ship Positions

Nichioh Maru

Last reported at 2018-Jan-21 14:25 UTC. Time now 2018-Jan-21 16:47 UTC.
Position N 33°57' E 136°34'.

Length 170 m; draft 6.5 m.

Type: Cargo ship. MMSI: 431003232.

Date/timePositionNaut miles runAvg speedWind from/ knotsBaromVisibWave heightAir tempDewpointWater temp
2018-Jan-21 14:25N 33°57' E 136°34'1121.7
2018-Jan-21 13:54N 34°05' E 136°43'2719.3
2018-Jan-21 12:31N 34°27' E 137°01'118.6
2018-Jan-21 12:27N 34°29' E 137°01'714.2
2018-Jan-21 11:57N 34°35' E 136°58'817.5
2018-Jan-21 11:30N 34°41' E 137°05'816.2
2018-Jan-21 11:00N 34°44' E 137°14'5 1.3
2018-Jan-21 07:31N 34°44' E 137°20'0 1.3
2018-Jan-21 07:23N 34°44' E 137°20'410.7
2018-Jan-21 06:59N 34°44' E 137°14'714.0
2018-Jan-21 06:30N 34°41' E 137°07'1217.0
2018-Jan-21 05:49N 34°41' E 136°53'619.7
2018-Jan-21 05:30N 34°46' E 136°48'1019.2
2018-Jan-21 05:01N 34°56' E 136°46'815.5
2018-Jan-21 04:30N 35°02' E 136°51'2 3.6
2018-Jan-21 04:00N 35°03' E 136°53'0 0.0
2018-Jan-21 03:28N 35°03' E 136°53'0 0.0
2018-Jan-21 02:58N 35°03' E 136°53'0 0.0
2018-Jan-21 02:28N 35°03' E 136°53'1 3.1
2018-Jan-21 02:00N 35°02' E 136°52'713.9
2018-Jan-21 01:31N 34°56' E 136°47'714.3
2018-Jan-21 01:00N 34°49' E 136°47'612.7
2018-Jan-21 00:30N 34°43' E 136°50'612.2
2018-Jan-20 23:59N 34°38' E 136°54'612.1
2018-Jan-20 23:30N 34°34' E 136°60'712.8
2018-Jan-20 22:59N 34°32' E 137°07'714.7
2018-Jan-20 22:30N 34°31' E 137°16'1314.7
2018-Jan-20 21:36N 34°32' E 137°32'414.6
2018-Jan-20 21:20N 34°32' E 137°37'514.7
2018-Jan-20 21:00N 34°32' E 137°43'714.1
2018-Jan-20 20:29N 34°32' E 137°51'917.0
2018-Jan-20 19:58N 34°32' E 138°02'714.9
2018-Jan-20 19:30N 34°32' E 138°11'714.1
2018-Jan-20 19:00N 34°32' E 138°19'714.5
2018-Jan-20 18:29N 34°33' E 138°28'714.7
2018-Jan-20 18:00N 34°33' E 138°37'714.5
2018-Jan-20 17:30N 34°33' E 138°45'714.2
2018-Jan-20 17:00N 34°33' E 138°54'612.3
2018-Jan-20 16:30N 34°36' E 139°01'816.1
2018-Jan-20 16:00N 34°42' E 139°07'816.7
2018-Jan-20 15:30N 34°48' E 139°14'816.1
2018-Jan-20 15:01N 34°53' E 139°22'713.9
2018-Jan-20 14:30N 34°57' E 139°29'815.2
2018-Jan-20 14:00N 35°02' E 139°36'815.2
2018-Jan-20 13:30N 35°07' E 139°43'714.7
2018-Jan-20 13:00N 35°14' E 139°46'612.6
2018-Jan-20 12:30N 35°19' E 139°43'714.1
2018-Jan-20 12:00N 35°26' E 139°45'4 8.6
2018-Jan-20 11:30N 35°30' E 139°46'0 0.0
2018-Jan-20 11:00N 35°30' E 139°46'0 0.0
2018-Jan-20 10:30N 35°30' E 139°46'0 0.0
2018-Jan-20 10:00N 35°30' E 139°46'0 0.0
2018-Jan-20 09:30N 35°30' E 139°46'0 0.0
2018-Jan-20 09:00N 35°30' E 139°46'0 0.0
2018-Jan-20 08:30N 35°30' E 139°46'0 0.0
2018-Jan-20 08:00N 35°30' E 139°46'0 0.0
2018-Jan-20 07:30N 35°30' E 139°46'0 0.0
2018-Jan-20 07:00N 35°30' E 139°46'0 0.0
2018-Jan-20 06:30N 35°30' E 139°46'0 0.0
2018-Jan-20 06:00N 35°30' E 139°46'0 0.0
2018-Jan-20 05:30N 35°30' E 139°46'0 0.0
2018-Jan-20 05:00N 35°30' E 139°46'0 0.0
2018-Jan-20 04:30N 35°30' E 139°46'0 0.0
2018-Jan-20 04:00N 35°30' E 139°46'0 0.3
2018-Jan-20 03:30N 35°30' E 139°46'4 7.8
2018-Jan-20 03:01N 35°27' E 139°43'611.9
2018-Jan-20 02:30N 35°22' E 139°45'611.0
2018-Jan-20 02:00N 35°19' E 139°39'0 0.7
2018-Jan-20 01:30N 35°19' E 139°39'0 0.0
2018-Jan-20 01:00N 35°19' E 139°39'0 0.0
2018-Jan-20 00:30N 35°19' E 139°39'0 0.0
2018-Jan-20 00:00N 35°19' E 139°39'0 0.0
2018-Jan-19 23:30N 35°19' E 139°39'0 0.0
2018-Jan-19 23:00N 35°19' E 139°39'0 0.0
2018-Jan-19 22:30N 35°19' E 139°39'0 0.0
2018-Jan-19 22:00N 35°19' E 139°39'0 0.0
2018-Jan-19 21:31N 35°19' E 139°39'4 7.3
2018-Jan-19 21:00N 35°18' E 139°43'612.2
2018-Jan-19 20:30N 35°13' E 139°47'713.6
2018-Jan-19 20:01N 35°06' E 139°46'816.5
2018-Jan-19 19:30N 35°00' E 139°39'918.4
2018-Jan-19 19:00N 34°55' E 139°30'1019.2
2018-Jan-19 18:30N 34°49' E 139°20'1218.5
2018-Jan-19 17:50N 34°40' E 139°10'618.4
2018-Jan-19 17:30N 34°36' E 139°04'917.7
2018-Jan-19 17:00N 34°29' E 138°57'918.5
2018-Jan-19 16:30N 34°28' E 138°46'918.3
2018-Jan-19 16:00N 34°26' E 138°35'1018.3
2018-Jan-19 15:28N 34°24' E 138°23'1119.0
2018-Jan-19 14:54N 34°22' E 138°11'15517.5
2018-Jan-19 06:06N 33°41' E 135°11'320.5
2018-Jan-19 05:58N 33°42' E 135°09'920.4
2018-Jan-19 05:30N 33°50' E 135°02'1020.1
2018-Jan-19 05:00N 33°59' E 134°57'1020.2
2018-Jan-19 04:30N 34°09' E 134°57'1020.3
2018-Jan-19 04:00N 34°19' E 134°59'1019.6
2018-Jan-19 03:30N 34°27' E 135°06'1019.3
2018-Jan-19 03:00N 34°34' E 135°14'713.2
2018-Jan-19 02:30N 34°41' E 135°14'1 1.0
2018-Jan-19 01:59N 34°41' E 135°13'0 0.0
2018-Jan-19 01:29N 34°41' E 135°13'0 0.0
2018-Jan-19 00:59N 34°41' E 135°13'0 0.0
2018-Jan-19 00:29N 34°41' E 135°13'0 0.0
2018-Jan-18 23:59N 34°41' E 135°13'0 0.0
2018-Jan-18 23:29N 34°41' E 135°13'0 0.0
2018-Jan-18 23:00N 34°41' E 135°13'1 2.2
2018-Jan-18 22:31N 34°40' E 135°15'4 7.9
2018-Jan-18 22:00N 34°37' E 135°17'0 0.0
2018-Jan-18 21:27N 34°37' E 135°17'0 0.0
2018-Jan-18 21:00N 34°37' E 135°17'0 0.0
2018-Jan-18 20:30N 34°37' E 135°17'0 0.0
2018-Jan-18 20:00N 34°37' E 135°17'0 0.0
2018-Jan-18 19:30N 34°37' E 135°17'0 0.0
2018-Jan-18 19:00N 34°37' E 135°17'0 0.0
2018-Jan-18 18:30N 34°37' E 135°17'0 0.1
2018-Jan-18 18:00N 34°37' E 135°17'0 0.0
2018-Jan-18 17:30N 34°37' E 135°17'0 0.1
2018-Jan-18 17:00N 34°37' E 135°17'0 0.0
2018-Jan-18 16:30N 34°37' E 135°17'0 0.1
2018-Jan-18 16:00N 34°37' E 135°17'0 0.1
2018-Jan-18 15:30N 34°37' E 135°17'0 0.0
2018-Jan-18 15:00N 34°37' E 135°17'0 0.1
2018-Jan-18 14:30N 34°37' E 135°17'0 0.1
2018-Jan-18 14:00N 34°37' E 135°17'0 0.0
2018-Jan-18 13:30N 34°37' E 135°17'0 0.0
2018-Jan-18 13:00N 34°37' E 135°17'0 0.1
2018-Jan-18 12:30N 34°37' E 135°17'0 0.1
2018-Jan-18 12:00N 34°37' E 135°17'0 0.0
2018-Jan-18 11:30N 34°37' E 135°17'0 0.0
2018-Jan-18 11:00N 34°37' E 135°17'1 1.8
2018-Jan-18 10:31N 34°36' E 135°16'918.0
2018-Jan-18 10:01N 34°35' E 135°05'917.3
2018-Jan-18 09:31N 34°35' E 134°54'1019.2
2018-Jan-18 09:01N 34°32' E 134°44'1019.4
2018-Jan-18 08:30N 34°28' E 134°33'1019.4
2018-Jan-18 08:00N 34°24' E 134°22'1019.2
2018-Jan-18 07:29N 34°25' E 134°10'  
2018-Jan-12 14:59N 34°21' E 138°15'918.6
2018-Jan-12 14:30N 34°20' E 138°04'15016.6
2018-Jan-12 05:28N 33°46' E 135°08'1021.0
2018-Jan-12 05:00N 33°54' E 135°01'1021.0
2018-Jan-12 04:31N 34°04' E 134°60'1121.3
2018-Jan-12 04:01N 34°15' E 134°59'1019.9
2018-Jan-12 03:31N 34°24' E 135°03'1020.5
2018-Jan-12 03:00N 34°31' E 135°12'816.6
2018-Jan-12 02:30N 34°39' E 135°16'3 5.7
2018-Jan-12 02:00N 34°41' E 135°13'0 0.0
2018-Jan-12 01:30N 34°41' E 135°13'0 0.0
2018-Jan-12 01:00N 34°41' E 135°13'0 0.0
2018-Jan-12 00:30N 34°41' E 135°13'0 0.0
2018-Jan-12 00:00N 34°41' E 135°13'0 0.0
2018-Jan-11 23:30N 34°41' E 135°13'0 0.4
2018-Jan-11 23:01N 34°41' E 135°14'3 6.3
2018-Jan-11 22:30N 34°38' E 135°16'2 3.4
2018-Jan-11 22:00N 34°37' E 135°17'0 0.1
2018-Jan-11 21:29N 34°37' E 135°17'0 0.1
2018-Jan-11 20:59N 34°37' E 135°17'0 0.1
2018-Jan-11 20:29N 34°37' E 135°17'0 0.0
2018-Jan-11 19:59N 34°37' E 135°17'0 0.1
2018-Jan-11 19:29N 34°37' E 135°17'0 0.1
2018-Jan-11 18:59N 34°37' E 135°17'0 0.0
2018-Jan-11 18:29N 34°37' E 135°17'0 0.0
2018-Jan-11 17:59N 34°37' E 135°17'0 0.0
2018-Jan-11 17:29N 34°37' E 135°17'0 0.0
2018-Jan-11 16:59N 34°37' E 135°17'0 0.1
2018-Jan-11 16:29N 34°37' E 135°17'0 0.0
2018-Jan-11 15:59N 34°37' E 135°17'0 0.1
2018-Jan-11 15:29N 34°37' E 135°17'0 0.1
2018-Jan-11 14:59N 34°37' E 135°17'0 0.1
2018-Jan-11 14:29N 34°37' E 135°17'  
Track history (hours):
 
Tides and Currents Weather Stations Pressure Air Temp Water Temp Dewpoint Dewpoint Depression Visibility Wind Speed Wind Dir Waves Ship Positions

Nichioh Maru

Last reported at 2018-Jan-21 14:25 UTC. Time now 2018-Jan-21 16:47 UTC.
Position N 33°57' E 136°34'.

Length 170 m; draft 6.5 m.

Type: Cargo ship. MMSI: 431003232.

Date/timePositionNaut miles runAvg speedWind from/ knotsBaromVisibWave heightAir tempDewpointWater temp
2018-Jan-21 14:25N 33°57' E 136°34'1121.7
2018-Jan-21 13:54N 34°05' E 136°43'2719.3
2018-Jan-21 12:31N 34°27' E 137°01'118.6
2018-Jan-21 12:27N 34°29' E 137°01'714.2
2018-Jan-21 11:57N 34°35' E 136°58'817.5
2018-Jan-21 11:30N 34°41' E 137°05'816.2
2018-Jan-21 11:00N 34°44' E 137°14'5 1.3
2018-Jan-21 07:31N 34°44' E 137°20'0 1.3
2018-Jan-21 07:23N 34°44' E 137°20'410.7
2018-Jan-21 06:59N 34°44' E 137°14'714.0
2018-Jan-21 06:30N 34°41' E 137°07'1217.0
2018-Jan-21 05:49N 34°41' E 136°53'619.7
2018-Jan-21 05:30N 34°46' E 136°48'1019.2
2018-Jan-21 05:01N 34°56' E 136°46'815.5
2018-Jan-21 04:30N 35°02' E 136°51'2 3.6
2018-Jan-21 04:00N 35°03' E 136°53'0 0.0
2018-Jan-21 03:28N 35°03' E 136°53'0 0.0
2018-Jan-21 02:58N 35°03' E 136°53'0 0.0
2018-Jan-21 02:28N 35°03' E 136°53'1 3.1
2018-Jan-21 02:00N 35°02' E 136°52'713.9
2018-Jan-21 01:31N 34°56' E 136°47'714.3
2018-Jan-21 01:00N 34°49' E 136°47'612.7
2018-Jan-21 00:30N 34°43' E 136°50'612.2
2018-Jan-20 23:59N 34°38' E 136°54'612.1
2018-Jan-20 23:30N 34°34' E 136°60'712.8
2018-Jan-20 22:59N 34°32' E 137°07'714.7
2018-Jan-20 22:30N 34°31' E 137°16'1314.7
2018-Jan-20 21:36N 34°32' E 137°32'414.6
2018-Jan-20 21:20N 34°32' E 137°37'514.7
2018-Jan-20 21:00N 34°32' E 137°43'714.1
2018-Jan-20 20:29N 34°32' E 137°51'917.0
2018-Jan-20 19:58N 34°32' E 138°02'714.9
2018-Jan-20 19:30N 34°32' E 138°11'714.1
2018-Jan-20 19:00N 34°32' E 138°19'714.5
2018-Jan-20 18:29N 34°33' E 138°28'714.7
2018-Jan-20 18:00N 34°33' E 138°37'714.5
2018-Jan-20 17:30N 34°33' E 138°45'714.2
2018-Jan-20 17:00N 34°33' E 138°54'612.3
2018-Jan-20 16:30N 34°36' E 139°01'816.1
2018-Jan-20 16:00N 34°42' E 139°07'816.7
2018-Jan-20 15:30N 34°48' E 139°14'816.1
2018-Jan-20 15:01N 34°53' E 139°22'713.9
2018-Jan-20 14:30N 34°57' E 139°29'815.2
2018-Jan-20 14:00N 35°02' E 139°36'815.2
2018-Jan-20 13:30N 35°07' E 139°43'714.7
2018-Jan-20 13:00N 35°14' E 139°46'612.6
2018-Jan-20 12:30N 35°19' E 139°43'714.1
2018-Jan-20 12:00N 35°26' E 139°45'4 8.6
2018-Jan-20 11:30N 35°30' E 139°46'0 0.0
2018-Jan-20 11:00N 35°30' E 139°46'0 0.0
2018-Jan-20 10:30N 35°30' E 139°46'0 0.0
2018-Jan-20 10:00N 35°30' E 139°46'0 0.0
2018-Jan-20 09:30N 35°30' E 139°46'0 0.0
2018-Jan-20 09:00N 35°30' E 139°46'0 0.0
2018-Jan-20 08:30N 35°30' E 139°46'0 0.0
2018-Jan-20 08:00N 35°30' E 139°46'0 0.0
2018-Jan-20 07:30N 35°30' E 139°46'0 0.0
2018-Jan-20 07:00N 35°30' E 139°46'0 0.0
2018-Jan-20 06:30N 35°30' E 139°46'0 0.0
2018-Jan-20 06:00N 35°30' E 139°46'0 0.0
2018-Jan-20 05:30N 35°30' E 139°46'0 0.0
2018-Jan-20 05:00N 35°30' E 139°46'0 0.0
2018-Jan-20 04:30N 35°30' E 139°46'0 0.0
2018-Jan-20 04:00N 35°30' E 139°46'0 0.3
2018-Jan-20 03:30N 35°30' E 139°46'4 7.8
2018-Jan-20 03:01N 35°27' E 139°43'611.9
2018-Jan-20 02:30N 35°22' E 139°45'611.0
2018-Jan-20 02:00N 35°19' E 139°39'0 0.7
2018-Jan-20 01:30N 35°19' E 139°39'0 0.0
2018-Jan-20 01:00N 35°19' E 139°39'0 0.0
2018-Jan-20 00:30N 35°19' E 139°39'0 0.0
2018-Jan-20 00:00N 35°19' E 139°39'0 0.0
2018-Jan-19 23:30N 35°19' E 139°39'0 0.0
2018-Jan-19 23:00N 35°19' E 139°39'0 0.0
2018-Jan-19 22:30N 35°19' E 139°39'0 0.0
2018-Jan-19 22:00N 35°19' E 139°39'0 0.0
2018-Jan-19 21:31N 35°19' E 139°39'4 7.3
2018-Jan-19 21:00N 35°18' E 139°43'612.2
2018-Jan-19 20:30N 35°13' E 139°47'713.6
2018-Jan-19 20:01N 35°06' E 139°46'816.5
2018-Jan-19 19:30N 35°00' E 139°39'918.4
2018-Jan-19 19:00N 34°55' E 139°30'1019.2
2018-Jan-19 18:30N 34°49' E 139°20'1218.5
2018-Jan-19 17:50N 34°40' E 139°10'618.4
2018-Jan-19 17:30N 34°36' E 139°04'917.7
2018-Jan-19 17:00N 34°29' E 138°57'918.5
2018-Jan-19 16:30N 34°28' E 138°46'918.3
2018-Jan-19 16:00N 34°26' E 138°35'1018.3
2018-Jan-19 15:28N 34°24' E 138°23'1119.0
2018-Jan-19 14:54N 34°22' E 138°11'15517.5
2018-Jan-19 06:06N 33°41' E 135°11'320.5
2018-Jan-19 05:58N 33°42' E 135°09'920.4
2018-Jan-19 05:30N 33°50' E 135°02'1020.1
2018-Jan-19 05:00N 33°59' E 134°57'1020.2
2018-Jan-19 04:30N 34°09' E 134°57'1020.3
2018-Jan-19 04:00N 34°19' E 134°59'1019.6
2018-Jan-19 03:30N 34°27' E 135°06'1019.3
2018-Jan-19 03:00N 34°34' E 135°14'713.2
2018-Jan-19 02:30N 34°41' E 135°14'1 1.0
2018-Jan-19 01:59N 34°41' E 135°13'0 0.0
2018-Jan-19 01:29N 34°41' E 135°13'0 0.0
2018-Jan-19 00:59N 34°41' E 135°13'0 0.0
2018-Jan-19 00:29N 34°41' E 135°13'0 0.0
2018-Jan-18 23:59N 34°41' E 135°13'0 0.0
2018-Jan-18 23:29N 34°41' E 135°13'0 0.0
2018-Jan-18 23:00N 34°41' E 135°13'1 2.2
2018-Jan-18 22:31N 34°40' E 135°15'4 7.9
2018-Jan-18 22:00N 34°37' E 135°17'0 0.0
2018-Jan-18 21:27N 34°37' E 135°17'0 0.0
2018-Jan-18 21:00N 34°37' E 135°17'0 0.0
2018-Jan-18 20:30N 34°37' E 135°17'0 0.0
2018-Jan-18 20:00N 34°37' E 135°17'0 0.0
2018-Jan-18 19:30N 34°37' E 135°17'0 0.0
2018-Jan-18 19:00N 34°37' E 135°17'0 0.0
2018-Jan-18 18:30N 34°37' E 135°17'0 0.1
2018-Jan-18 18:00N 34°37' E 135°17'0 0.0
2018-Jan-18 17:30N 34°37' E 135°17'0 0.1
2018-Jan-18 17:00N 34°37' E 135°17'0 0.0
2018-Jan-18 16:30N 34°37' E 135°17'0 0.1
2018-Jan-18 16:00N 34°37' E 135°17'0 0.1
2018-Jan-18 15:30N 34°37' E 135°17'0 0.0
2018-Jan-18 15:00N 34°37' E 135°17'0 0.1
2018-Jan-18 14:30N 34°37' E 135°17'0 0.1
2018-Jan-18 14:00N 34°37' E 135°17'0 0.0
2018-Jan-18 13:30N 34°37' E 135°17'0 0.0
2018-Jan-18 13:00N 34°37' E 135°17'0 0.1
2018-Jan-18 12:30N 34°37' E 135°17'0 0.1
2018-Jan-18 12:00N 34°37' E 135°17'0 0.0
2018-Jan-18 11:30N 34°37' E 135°17'0 0.0
2018-Jan-18 11:00N 34°37' E 135°17'1 1.8
2018-Jan-18 10:31N 34°36' E 135°16'918.0
2018-Jan-18 10:01N 34°35' E 135°05'917.3
2018-Jan-18 09:31N 34°35' E 134°54'1019.2
2018-Jan-18 09:01N 34°32' E 134°44'1019.4
2018-Jan-18 08:30N 34°28' E 134°33'1019.4
2018-Jan-18 08:00N 34°24' E 134°22'1019.2
2018-Jan-18 07:29N 34°25' E 134°10'  
2018-Jan-12 14:59N 34°21' E 138°15'918.6
2018-Jan-12 14:30N 34°20' E 138°04'15016.6
2018-Jan-12 05:28N 33°46' E 135°08'1021.0
2018-Jan-12 05:00N 33°54' E 135°01'1021.0
2018-Jan-12 04:31N 34°04' E 134°60'1121.3
2018-Jan-12 04:01N 34°15' E 134°59'1019.9
2018-Jan-12 03:31N 34°24' E 135°03'1020.5
2018-Jan-12 03:00N 34°31' E 135°12'816.6
2018-Jan-12 02:30N 34°39' E 135°16'3 5.7
2018-Jan-12 02:00N 34°41' E 135°13'0 0.0
2018-Jan-12 01:30N 34°41' E 135°13'0 0.0
2018-Jan-12 01:00N 34°41' E 135°13'0 0.0
2018-Jan-12 00:30N 34°41' E 135°13'0 0.0
2018-Jan-12 00:00N 34°41' E 135°13'0 0.0
2018-Jan-11 23:30N 34°41' E 135°13'0 0.4
2018-Jan-11 23:01N 34°41' E 135°14'3 6.3
2018-Jan-11 22:30N 34°38' E 135°16'2 3.4
2018-Jan-11 22:00N 34°37' E 135°17'0 0.1
2018-Jan-11 21:29N 34°37' E 135°17'0 0.1
2018-Jan-11 20:59N 34°37' E 135°17'0 0.1
2018-Jan-11 20:29N 34°37' E 135°17'0 0.0
2018-Jan-11 19:59N 34°37' E 135°17'0 0.1
2018-Jan-11 19:29N 34°37' E 135°17'0 0.1
2018-Jan-11 18:59N 34°37' E 135°17'0 0.0
2018-Jan-11 18:29N 34°37' E 135°17'0 0.0
2018-Jan-11 17:59N 34°37' E 135°17'0 0.0
2018-Jan-11 17:29N 34°37' E 135°17'0 0.0
2018-Jan-11 16:59N 34°37' E 135°17'0 0.1
2018-Jan-11 16:29N 34°37' E 135°17'0 0.0
2018-Jan-11 15:59N 34°37' E 135°17'0 0.1
2018-Jan-11 15:29N 34°37' E 135°17'0 0.1
2018-Jan-11 14:59N 34°37' E 135°17'0 0.1
2018-Jan-11 14:29N 34°37' E 135°17'  

Dump ship's entire track history